sensor_id;sensor_type;location;lat;lon;timestamp;P1;durP1;ratioP1;P2;durP2;ratioP2
40955;SDS011;26687;48.254;11.454;2023-05-07T00:00:39;6.67;;;5.80;;
40955;SDS011;26687;48.254;11.454;2023-05-07T00:03:40;6.07;;;5.47;;
40955;SDS011;26687;48.254;11.454;2023-05-07T00:06:40;6.43;;;5.83;;
40955;SDS011;26687;48.254;11.454;2023-05-07T00:09:40;7.07;;;6.43;;
40955;SDS011;26687;48.254;11.454;2023-05-07T00:12:40;6.87;;;6.17;;
40955;SDS011;26687;48.254;11.454;2023-05-07T00:15:41;6.53;;;5.95;;
40955;SDS011;26687;48.254;11.454;2023-05-07T00:18:41;7.57;;;6.10;;
40955;SDS011;26687;48.254;11.454;2023-05-07T00:21:41;6.35;;;5.75;;
40955;SDS011;26687;48.254;11.454;2023-05-07T00:24:41;8.10;;;6.20;;
40955;SDS011;26687;48.254;11.454;2023-05-07T00:27:42;6.43;;;5.72;;
40955;SDS011;26687;48.254;11.454;2023-05-07T00:30:42;6.38;;;5.78;;
40955;SDS011;26687;48.254;11.454;2023-05-07T00:33:42;7.30;;;5.60;;
40955;SDS011;26687;48.254;11.454;2023-05-07T00:36:42;6.30;;;5.73;;
40955;SDS011;26687;48.254;11.454;2023-05-07T00:39:42;6.03;;;5.43;;
40955;SDS011;26687;48.254;11.454;2023-05-07T00:42:43;7.90;;;5.40;;
40955;SDS011;26687;48.254;11.454;2023-05-07T00:45:46;6.20;;;5.53;;
40955;SDS011;26687;48.254;11.454;2023-05-07T00:48:47;5.50;;;5.00;;
40955;SDS011;26687;48.254;11.454;2023-05-07T00:51:47;8.38;;;5.30;;
40955;SDS011;26687;48.254;11.454;2023-05-07T00:54:48;5.35;;;4.95;;
40955;SDS011;26687;48.254;11.454;2023-05-07T00:57:48;5.80;;;5.17;;
40955;SDS011;26687;48.254;11.454;2023-05-07T01:00:49;5.20;;;4.80;;
40955;SDS011;26687;48.254;11.454;2023-05-07T01:03:50;5.50;;;4.97;;
40955;SDS011;26687;48.254;11.454;2023-05-07T01:06:50;4.97;;;4.57;;
40955;SDS011;26687;48.254;11.454;2023-05-07T01:09:51;5.20;;;4.75;;
40955;SDS011;26687;48.254;11.454;2023-05-07T01:12:51;4.97;;;4.57;;
40955;SDS011;26687;48.254;11.454;2023-05-07T01:15:51;5.50;;;5.00;;
40955;SDS011;26687;48.254;11.454;2023-05-07T01:18:51;5.80;;;5.30;;
40955;SDS011;26687;48.254;11.454;2023-05-07T01:21:52;4.87;;;4.47;;
40955;SDS011;26687;48.254;11.454;2023-05-07T01:24:57;4.78;;;4.22;;
40955;SDS011;26687;48.254;11.454;2023-05-07T01:27:59;6.68;;;4.60;;
40955;SDS011;26687;48.254;11.454;2023-05-07T01:31:02;4.85;;;4.30;;
40955;SDS011;26687;48.254;11.454;2023-05-07T01:34:04;5.07;;;4.55;;
40955;SDS011;26687;48.254;11.454;2023-05-07T01:37:04;5.18;;;4.68;;
40955;SDS011;26687;48.254;11.454;2023-05-07T01:40:05;4.20;;;3.90;;
40955;SDS011;26687;48.254;11.454;2023-05-07T01:43:07;4.68;;;4.28;;
40955;SDS011;26687;48.254;11.454;2023-05-07T01:46:07;5.40;;;4.90;;
40955;SDS011;26687;48.254;11.454;2023-05-07T01:49:09;4.78;;;4.30;;
40955;SDS011;26687;48.254;11.454;2023-05-07T01:52:10;4.67;;;4.27;;
40955;SDS011;26687;48.254;11.454;2023-05-07T01:55:11;4.53;;;4.22;;
40955;SDS011;26687;48.254;11.454;2023-05-07T01:58:11;4.45;;;4.05;;
40955;SDS011;26687;48.254;11.454;2023-05-07T02:01:12;5.45;;;4.72;;
40955;SDS011;26687;48.254;11.454;2023-05-07T02:04:12;4.20;;;3.85;;
40955;SDS011;26687;48.254;11.454;2023-05-07T02:07:13;4.57;;;4.20;;
40955;SDS011;26687;48.254;11.454;2023-05-07T02:10:13;5.30;;;3.83;;
40955;SDS011;26687;48.254;11.454;2023-05-07T02:13:13;4.80;;;4.40;;
40955;SDS011;26687;48.254;11.454;2023-05-07T02:16:13;4.57;;;4.25;;
40955;SDS011;26687;48.254;11.454;2023-05-07T02:19:14;5.28;;;4.78;;
40955;SDS011;26687;48.254;11.454;2023-05-07T02:22:14;4.25;;;3.90;;
40955;SDS011;26687;48.254;11.454;2023-05-07T02:25:15;4.57;;;4.15;;
40955;SDS011;26687;48.254;11.454;2023-05-07T02:28:15;4.15;;;3.75;;
40955;SDS011;26687;48.254;11.454;2023-05-07T02:31:15;3.77;;;3.47;;
40955;SDS011;26687;48.254;11.454;2023-05-07T02:34:18;4.28;;;3.90;;
40955;SDS011;26687;48.254;11.454;2023-05-07T02:37:18;4.23;;;3.93;;
40955;SDS011;26687;48.254;11.454;2023-05-07T02:40:18;4.43;;;4.00;;
40955;SDS011;26687;48.254;11.454;2023-05-07T02:43:18;4.33;;;3.57;;
40955;SDS011;26687;48.254;11.454;2023-05-07T02:46:19;4.17;;;3.80;;
40955;SDS011;26687;48.254;11.454;2023-05-07T02:49:19;4.30;;;3.50;;
40955;SDS011;26687;48.254;11.454;2023-05-07T02:52:19;3.67;;;3.38;;
40955;SDS011;26687;48.254;11.454;2023-05-07T02:55:19;4.68;;;4.28;;
40955;SDS011;26687;48.254;11.454;2023-05-07T02:58:20;3.80;;;3.50;;
40955;SDS011;26687;48.254;11.454;2023-05-07T03:01:20;4.18;;;3.80;;
40955;SDS011;26687;48.254;11.454;2023-05-07T03:04:20;4.68;;;4.28;;
40955;SDS011;26687;48.254;11.454;2023-05-07T03:07:21;3.67;;;3.37;;
40955;SDS011;26687;48.254;11.454;2023-05-07T03:10:21;3.90;;;3.47;;
40955;SDS011;26687;48.254;11.454;2023-05-07T03:13:21;4.78;;;3.75;;
40955;SDS011;26687;48.254;11.454;2023-05-07T03:16:21;6.45;;;4.10;;
40955;SDS011;26687;48.254;11.454;2023-05-07T03:19:21;4.45;;;4.15;;
40955;SDS011;26687;48.254;11.454;2023-05-07T03:22:22;5.00;;;4.50;;
40955;SDS011;26687;48.254;11.454;2023-05-07T03:25:22;4.38;;;3.83;;
40955;SDS011;26687;48.254;11.454;2023-05-07T03:28:22;4.77;;;4.37;;
40955;SDS011;26687;48.254;11.454;2023-05-07T03:31:22;4.55;;;4.15;;
40955;SDS011;26687;48.254;11.454;2023-05-07T03:34:23;4.07;;;3.77;;
40955;SDS011;26687;48.254;11.454;2023-05-07T03:37:23;4.90;;;4.50;;
40955;SDS011;26687;48.254;11.454;2023-05-07T03:40:23;4.57;;;4.20;;
40955;SDS011;26687;48.254;11.454;2023-05-07T03:43:24;4.90;;;4.43;;
40955;SDS011;26687;48.254;11.454;2023-05-07T03:46:24;4.95;;;4.28;;
40955;SDS011;26687;48.254;11.454;2023-05-07T03:49:26;5.07;;;4.65;;
40955;SDS011;26687;48.254;11.454;2023-05-07T03:52:26;4.57;;;4.17;;
40955;SDS011;26687;48.254;11.454;2023-05-07T03:55:26;4.50;;;4.10;;
40955;SDS011;26687;48.254;11.454;2023-05-07T03:58:27;4.55;;;4.20;;
40955;SDS011;26687;48.254;11.454;2023-05-07T04:01:27;4.22;;;3.92;;
40955;SDS011;26687;48.254;11.454;2023-05-07T04:04:27;4.60;;;4.20;;
40955;SDS011;26687;48.254;11.454;2023-05-07T04:07:27;4.30;;;4.00;;
40955;SDS011;26687;48.254;11.454;2023-05-07T04:10:29;4.32;;;3.92;;
40955;SDS011;26687;48.254;11.454;2023-05-07T04:13:29;4.95;;;4.55;;
40955;SDS011;26687;48.254;11.454;2023-05-07T04:16:29;4.82;;;4.35;;
40955;SDS011;26687;48.254;11.454;2023-05-07T04:19:30;5.23;;;4.80;;
40955;SDS011;26687;48.254;11.454;2023-05-07T04:22:30;5.05;;;4.55;;
40955;SDS011;26687;48.254;11.454;2023-05-07T04:25:30;6.70;;;4.75;;
40955;SDS011;26687;48.254;11.454;2023-05-07T04:28:30;4.50;;;4.20;;
40955;SDS011;26687;48.254;11.454;2023-05-07T04:31:30;4.20;;;3.90;;
40955;SDS011;26687;48.254;11.454;2023-05-07T04:34:31;4.70;;;4.28;;
40955;SDS011;26687;48.254;11.454;2023-05-07T04:37:32;5.00;;;4.60;;
40955;SDS011;26687;48.254;11.454;2023-05-07T04:40:32;4.70;;;4.30;;
40955;SDS011;26687;48.254;11.454;2023-05-07T04:43:32;5.07;;;4.57;;
40955;SDS011;26687;48.254;11.454;2023-05-07T04:46:32;5.30;;;4.80;;
40955;SDS011;26687;48.254;11.454;2023-05-07T04:49:32;4.90;;;4.50;;
40955;SDS011;26687;48.254;11.454;2023-05-07T04:52:32;5.03;;;4.65;;
40955;SDS011;26687;48.254;11.454;2023-05-07T04:55:33;5.15;;;4.75;;
40955;SDS011;26687;48.254;11.454;2023-05-07T04:58:33;5.18;;;4.78;;
40955;SDS011;26687;48.254;11.454;2023-05-07T05:01:33;5.90;;;5.40;;
40955;SDS011;26687;48.254;11.454;2023-05-07T05:04:33;6.22;;;5.43;;
40955;SDS011;26687;48.254;11.454;2023-05-07T05:07:33;5.68;;;5.20;;
40955;SDS011;26687;48.254;11.454;2023-05-07T05:10:33;5.50;;;5.00;;
40955;SDS011;26687;48.254;11.454;2023-05-07T05:13:34;6.18;;;5.50;;
40955;SDS011;26687;48.254;11.454;2023-05-07T05:16:34;6.17;;;5.67;;
40955;SDS011;26687;48.254;11.454;2023-05-07T05:19:34;5.53;;;5.13;;
40955;SDS011;26687;48.254;11.454;2023-05-07T05:22:34;5.75;;;5.18;;
40955;SDS011;26687;48.254;11.454;2023-05-07T05:25:35;6.05;;;5.55;;
40955;SDS011;26687;48.254;11.454;2023-05-07T05:28:35;6.05;;;5.55;;
40955;SDS011;26687;48.254;11.454;2023-05-07T05:31:35;5.73;;;5.23;;
40955;SDS011;26687;48.254;11.454;2023-05-07T05:34:36;6.00;;;5.22;;
40955;SDS011;26687;48.254;11.454;2023-05-07T05:37:36;5.60;;;5.20;;
40955;SDS011;26687;48.254;11.454;2023-05-07T05:40:36;6.57;;;5.97;;
40955;SDS011;26687;48.254;11.454;2023-05-07T05:43:36;6.38;;;5.88;;
40955;SDS011;26687;48.254;11.454;2023-05-07T05:46:37;6.18;;;5.68;;
40955;SDS011;26687;48.254;11.454;2023-05-07T05:49:37;6.30;;;5.80;;
40955;SDS011;26687;48.254;11.454;2023-05-07T05:52:37;6.53;;;5.93;;
40955;SDS011;26687;48.254;11.454;2023-05-07T05:55:37;6.43;;;5.93;;
40955;SDS011;26687;48.254;11.454;2023-05-07T05:58:38;6.77;;;6.13;;
40955;SDS011;26687;48.254;11.454;2023-05-07T06:01:38;6.38;;;5.88;;
40955;SDS011;26687;48.254;11.454;2023-05-07T06:04:38;6.63;;;6.03;;
40955;SDS011;26687;48.254;11.454;2023-05-07T06:07:38;6.53;;;6.03;;
40955;SDS011;26687;48.254;11.454;2023-05-07T06:10:39;6.63;;;6.13;;
40955;SDS011;26687;48.254;11.454;2023-05-07T06:13:39;7.22;;;6.63;;
40955;SDS011;26687;48.254;11.454;2023-05-07T06:16:39;7.38;;;6.63;;
40955;SDS011;26687;48.254;11.454;2023-05-07T06:19:39;7.00;;;6.30;;
40955;SDS011;26687;48.254;11.454;2023-05-07T06:22:39;6.93;;;6.40;;
40955;SDS011;26687;48.254;11.454;2023-05-07T06:25:40;8.20;;;7.03;;
40955;SDS011;26687;48.254;11.454;2023-05-07T06:28:40;7.03;;;6.38;;
40955;SDS011;26687;48.254;11.454;2023-05-07T06:31:40;7.50;;;6.85;;
40955;SDS011;26687;48.254;11.454;2023-05-07T06:34:40;6.97;;;6.38;;
40955;SDS011;26687;48.254;11.454;2023-05-07T06:37:41;7.38;;;6.68;;
40955;SDS011;26687;48.254;11.454;2023-05-07T06:40:42;7.35;;;6.70;;
40955;SDS011;26687;48.254;11.454;2023-05-07T06:43:42;6.85;;;6.30;;
40955;SDS011;26687;48.254;11.454;2023-05-07T06:46:42;6.50;;;6.00;;
40955;SDS011;26687;48.254;11.454;2023-05-07T06:49:43;5.97;;;5.47;;
40955;SDS011;26687;48.254;11.454;2023-05-07T06:52:43;6.47;;;5.87;;
40955;SDS011;26687;48.254;11.454;2023-05-07T06:55:43;6.18;;;5.68;;
40955;SDS011;26687;48.254;11.454;2023-05-07T06:58:43;5.93;;;5.32;;
40955;SDS011;26687;48.254;11.454;2023-05-07T07:01:43;6.40;;;5.90;;
40955;SDS011;26687;48.254;11.454;2023-05-07T07:04:43;5.80;;;5.28;;
40955;SDS011;26687;48.254;11.454;2023-05-07T07:07:44;5.85;;;5.35;;
40955;SDS011;26687;48.254;11.454;2023-05-07T07:10:52;5.53;;;5.03;;
40955;SDS011;26687;48.254;11.454;2023-05-07T07:13:52;4.77;;;4.27;;
40955;SDS011;26687;48.254;11.454;2023-05-07T07:16:54;5.30;;;4.68;;
40955;SDS011;26687;48.254;11.454;2023-05-07T07:19:54;4.90;;;4.50;;
40955;SDS011;26687;48.254;11.454;2023-05-07T07:22:54;4.35;;;3.95;;
40955;SDS011;26687;48.254;11.454;2023-05-07T07:25:54;4.43;;;4.03;;
40955;SDS011;26687;48.254;11.454;2023-05-07T07:28:55;5.73;;;5.13;;
40955;SDS011;26687;48.254;11.454;2023-05-07T07:31:55;5.23;;;4.73;;
40955;SDS011;26687;48.254;11.454;2023-05-07T07:34:55;5.50;;;4.88;;
40955;SDS011;26687;48.254;11.454;2023-05-07T07:37:56;5.25;;;4.85;;
40955;SDS011;26687;48.254;11.454;2023-05-07T07:40:56;5.50;;;5.00;;
40955;SDS011;26687;48.254;11.454;2023-05-07T07:43:56;5.20;;;4.70;;
40955;SDS011;26687;48.254;11.454;2023-05-07T07:46:56;5.20;;;4.45;;
40955;SDS011;26687;48.254;11.454;2023-05-07T07:49:56;5.25;;;4.45;;
40955;SDS011;26687;48.254;11.454;2023-05-07T07:52:56;5.40;;;4.90;;
40955;SDS011;26687;48.254;11.454;2023-05-07T07:55:57;4.50;;;4.10;;
40955;SDS011;26687;48.254;11.454;2023-05-07T07:58:57;4.47;;;4.17;;
40955;SDS011;26687;48.254;11.454;2023-05-07T08:01:57;4.60;;;4.20;;
40955;SDS011;26687;48.254;11.454;2023-05-07T08:04:57;4.00;;;3.70;;
40955;SDS011;26687;48.254;11.454;2023-05-07T08:07:57;3.73;;;3.43;;
40955;SDS011;26687;48.254;11.454;2023-05-07T08:10:58;4.80;;;3.50;;
40955;SDS011;26687;48.254;11.454;2023-05-07T08:13:58;4.93;;;3.90;;
40955;SDS011;26687;48.254;11.454;2023-05-07T08:16:58;4.80;;;3.35;;
40955;SDS011;26687;48.254;11.454;2023-05-07T08:19:58;3.70;;;3.40;;
40955;SDS011;26687;48.254;11.454;2023-05-07T08:22:59;4.70;;;3.90;;
40955;SDS011;26687;48.254;11.454;2023-05-07T08:25:59;3.80;;;3.50;;
40955;SDS011;26687;48.254;11.454;2023-05-07T08:29:00;4.45;;;4.05;;
40955;SDS011;26687;48.254;11.454;2023-05-07T08:32:00;4.07;;;3.67;;
40955;SDS011;26687;48.254;11.454;2023-05-07T08:35:00;4.43;;;4.03;;
40955;SDS011;26687;48.254;11.454;2023-05-07T08:38:00;4.33;;;3.77;;
40955;SDS011;26687;48.254;11.454;2023-05-07T08:41:01;4.25;;;3.03;;
40955;SDS011;26687;48.254;11.454;2023-05-07T08:44:01;4.13;;;3.72;;
40955;SDS011;26687;48.254;11.454;2023-05-07T08:47:02;3.92;;;3.53;;
40955;SDS011;26687;48.254;11.454;2023-05-07T08:50:06;4.22;;;3.85;;
40955;SDS011;26687;48.254;11.454;2023-05-07T08:53:06;4.20;;;3.47;;
40955;SDS011;26687;48.254;11.454;2023-05-07T08:56:08;4.18;;;3.88;;
40955;SDS011;26687;48.254;11.454;2023-05-07T08:59:08;2.90;;;2.70;;
40955;SDS011;26687;48.254;11.454;2023-05-07T09:02:08;3.77;;;3.47;;
40955;SDS011;26687;48.254;11.454;2023-05-07T09:05:09;4.53;;;4.13;;
40955;SDS011;26687;48.254;11.454;2023-05-07T09:08:09;5.28;;;4.80;;
40955;SDS011;26687;48.254;11.454;2023-05-07T09:11:10;4.38;;;4.00;;
40955;SDS011;26687;48.254;11.454;2023-05-07T09:14:10;3.88;;;3.47;;
40955;SDS011;26687;48.254;11.454;2023-05-07T09:17:10;2.97;;;2.73;;
40955;SDS011;26687;48.254;11.454;2023-05-07T09:20:10;4.00;;;3.60;;
40955;SDS011;26687;48.254;11.454;2023-05-07T09:23:11;4.57;;;4.27;;
40955;SDS011;26687;48.254;11.454;2023-05-07T09:26:11;5.60;;;5.10;;
40955;SDS011;26687;48.254;11.454;2023-05-07T09:29:11;4.97;;;4.50;;
40955;SDS011;26687;48.254;11.454;2023-05-07T09:32:12;4.27;;;3.97;;
40955;SDS011;26687;48.254;11.454;2023-05-07T09:35:16;4.90;;;4.50;;
40955;SDS011;26687;48.254;11.454;2023-05-07T09:38:17;4.80;;;4.38;;
40955;SDS011;26687;48.254;11.454;2023-05-07T09:41:18;4.60;;;4.20;;
40955;SDS011;26687;48.254;11.454;2023-05-07T09:44:18;5.18;;;3.90;;
40955;SDS011;26687;48.254;11.454;2023-05-07T09:47:19;3.53;;;3.23;;
40955;SDS011;26687;48.254;11.454;2023-05-07T09:50:32;4.30;;;3.90;;
40955;SDS011;26687;48.254;11.454;2023-05-07T09:53:35;4.70;;;4.30;;
40955;SDS011;26687;48.254;11.454;2023-05-07T09:56:36;4.37;;;3.83;;
40955;SDS011;26687;48.254;11.454;2023-05-07T09:59:37;4.40;;;3.10;;
40955;SDS011;26687;48.254;11.454;2023-05-07T10:02:38;3.90;;;3.35;;
40955;SDS011;26687;48.254;11.454;2023-05-07T10:05:46;4.53;;;4.13;;
40955;SDS011;26687;48.254;11.454;2023-05-07T10:08:47;6.28;;;3.08;;
40955;SDS011;26687;48.254;11.454;2023-05-07T10:11:50;2.83;;;2.53;;
40955;SDS011;26687;48.254;11.454;2023-05-07T10:14:51;4.32;;;3.13;;
40955;SDS011;26687;48.254;11.454;2023-05-07T10:17:53;3.00;;;2.80;;
40955;SDS011;26687;48.254;11.454;2023-05-07T10:20:53;3.58;;;3.28;;
40955;SDS011;26687;48.254;11.454;2023-05-07T10:24:29;3.63;;;2.60;;
40955;SDS011;26687;48.254;11.454;2023-05-07T10:27:20;3.10;;;2.80;;
40955;SDS011;26687;48.254;11.454;2023-05-07T10:33:25;3.78;;;2.30;;
40955;SDS011;26687;48.254;11.454;2023-05-07T10:36:26;1.83;;;1.65;;
40955;SDS011;26687;48.254;11.454;2023-05-07T10:39:27;2.58;;;1.60;;
40955;SDS011;26687;48.254;11.454;2023-05-07T10:42:27;1.67;;;1.57;;
40955;SDS011;26687;48.254;11.454;2023-05-07T10:45:28;2.75;;;1.80;;
40955;SDS011;26687;48.254;11.454;2023-05-07T10:48:28;1.63;;;1.52;;
40955;SDS011;26687;48.254;11.454;2023-05-07T10:51:29;1.70;;;1.60;;
40955;SDS011;26687;48.254;11.454;2023-05-07T10:54:30;2.33;;;1.85;;
40955;SDS011;26687;48.254;11.454;2023-05-07T11:03:30;2.45;;;1.65;;
40955;SDS011;26687;48.254;11.454;2023-05-07T11:06:30;2.85;;;1.40;;
40955;SDS011;26687;48.254;11.454;2023-05-07T11:12:53;1.95;;;1.75;;
40955;SDS011;26687;48.254;11.454;2023-05-07T11:15:53;1.50;;;1.40;;
40955;SDS011;26687;48.254;11.454;2023-05-07T11:18:54;2.20;;;1.70;;
40955;SDS011;26687;48.254;11.454;2023-05-07T11:21:55;2.78;;;1.90;;
40955;SDS011;26687;48.254;11.454;2023-05-07T11:24:55;1.88;;;1.48;;
40955;SDS011;26687;48.254;11.454;2023-05-07T11:27:55;1.75;;;1.38;;
40955;SDS011;26687;48.254;11.454;2023-05-07T11:30:57;1.55;;;1.45;;
40955;SDS011;26687;48.254;11.454;2023-05-07T11:33:57;2.33;;;1.30;;
40955;SDS011;26687;48.254;11.454;2023-05-07T11:36:58;1.83;;;1.30;;
40955;SDS011;26687;48.254;11.454;2023-05-07T11:40:05;1.88;;;1.40;;
40955;SDS011;26687;48.254;11.454;2023-05-07T11:43:12;1.50;;;1.40;;
40955;SDS011;26687;48.254;11.454;2023-05-07T11:46:12;2.83;;;2.05;;
40955;SDS011;26687;48.254;11.454;2023-05-07T11:49:14;1.77;;;1.65;;
40955;SDS011;26687;48.254;11.454;2023-05-07T11:52:15;3.10;;;1.52;;
40955;SDS011;26687;48.254;11.454;2023-05-07T11:55:17;1.88;;;1.67;;
40955;SDS011;26687;48.254;11.454;2023-05-07T11:58:20;2.85;;;1.92;;
40955;SDS011;26687;48.254;11.454;2023-05-07T12:04:20;3.72;;;1.70;;
40955;SDS011;26687;48.254;11.454;2023-05-07T12:07:21;2.25;;;1.40;;
40955;SDS011;26687;48.254;11.454;2023-05-07T12:10:21;1.47;;;1.37;;
40955;SDS011;26687;48.254;11.454;2023-05-07T12:13:22;2.30;;;1.77;;
40955;SDS011;26687;48.254;11.454;2023-05-07T12:16:23;2.28;;;1.88;;
40955;SDS011;26687;48.254;11.454;2023-05-07T12:19:23;2.10;;;1.67;;
40955;SDS011;26687;48.254;11.454;2023-05-07T12:22:23;1.80;;;1.47;;
40955;SDS011;26687;48.254;11.454;2023-05-07T12:25:23;2.17;;;1.67;;
40955;SDS011;26687;48.254;11.454;2023-05-07T12:28:23;2.60;;;1.73;;
40955;SDS011;26687;48.254;11.454;2023-05-07T12:31:27;1.95;;;1.30;;
40955;SDS011;26687;48.254;11.454;2023-05-07T12:37:27;1.52;;;1.42;;
40955;SDS011;26687;48.254;11.454;2023-05-07T12:43:39;1.55;;;1.30;;
40955;SDS011;26687;48.254;11.454;2023-05-07T12:46:43;1.63;;;1.23;;
40955;SDS011;26687;48.254;11.454;2023-05-07T12:49:43;2.30;;;1.30;;
40955;SDS011;26687;48.254;11.454;2023-05-07T12:52:45;3.65;;;1.60;;
40955;SDS011;26687;48.254;11.454;2023-05-07T12:55:47;1.58;;;1.30;;
40955;SDS011;26687;48.254;11.454;2023-05-07T12:58:48;1.70;;;1.50;;
40955;SDS011;26687;48.254;11.454;2023-05-07T13:01:48;1.42;;;1.33;;
40955;SDS011;26687;48.254;11.454;2023-05-07T13:04:48;1.63;;;1.33;;
40955;SDS011;26687;48.254;11.454;2023-05-07T13:07:52;1.75;;;1.65;;
40955;SDS011;26687;48.254;11.454;2023-05-07T13:10:52;1.58;;;1.35;;
40955;SDS011;26687;48.254;11.454;2023-05-07T13:13:53;2.50;;;1.50;;
40955;SDS011;26687;48.254;11.454;2023-05-07T13:16:53;1.70;;;1.60;;
40955;SDS011;26687;48.254;11.454;2023-05-07T13:19:53;2.33;;;1.48;;
40955;SDS011;26687;48.254;11.454;2023-05-07T13:22:54;1.73;;;1.63;;
40955;SDS011;26687;48.254;11.454;2023-05-07T13:25:54;2.45;;;2.20;;
40955;SDS011;26687;48.254;11.454;2023-05-07T13:28:55;1.83;;;1.73;;
40955;SDS011;26687;48.254;11.454;2023-05-07T13:31:56;2.47;;;2.27;;
40955;SDS011;26687;48.254;11.454;2023-05-07T13:34:56;1.83;;;1.55;;
40955;SDS011;26687;48.254;11.454;2023-05-07T13:37:56;2.30;;;1.80;;
40955;SDS011;26687;48.254;11.454;2023-05-07T13:40:57;2.93;;;2.00;;
40955;SDS011;26687;48.254;11.454;2023-05-07T13:43:57;2.00;;;1.70;;
40955;SDS011;26687;48.254;11.454;2023-05-07T13:46:57;3.65;;;1.90;;
40955;SDS011;26687;48.254;11.454;2023-05-07T13:49:57;2.10;;;1.50;;
40955;SDS011;26687;48.254;11.454;2023-05-07T13:52:57;2.22;;;1.83;;
40955;SDS011;26687;48.254;11.454;2023-05-07T13:55:58;3.47;;;1.97;;
40955;SDS011;26687;48.254;11.454;2023-05-07T13:58:58;1.97;;;1.70;;
40955;SDS011;26687;48.254;11.454;2023-05-07T14:01:58;2.92;;;1.60;;
40955;SDS011;26687;48.254;11.454;2023-05-07T14:04:58;2.70;;;1.80;;
40955;SDS011;26687;48.254;11.454;2023-05-07T14:07:58;1.83;;;1.52;;
40955;SDS011;26687;48.254;11.454;2023-05-07T14:10:59;1.80;;;1.70;;
40955;SDS011;26687;48.254;11.454;2023-05-07T14:13:59;3.00;;;1.58;;
40955;SDS011;26687;48.254;11.454;2023-05-07T14:17:00;2.38;;;1.70;;
40955;SDS011;26687;48.254;11.454;2023-05-07T14:20:00;1.60;;;1.50;;
40955;SDS011;26687;48.254;11.454;2023-05-07T14:23:00;1.80;;;1.70;;
40955;SDS011;26687;48.254;11.454;2023-05-07T14:26:01;2.58;;;1.83;;
40955;SDS011;26687;48.254;11.454;2023-05-07T14:29:01;1.60;;;1.50;;
40955;SDS011;26687;48.254;11.454;2023-05-07T14:32:02;2.50;;;1.80;;
40955;SDS011;26687;48.254;11.454;2023-05-07T14:35:03;3.38;;;1.98;;
40955;SDS011;26687;48.254;11.454;2023-05-07T14:38:03;2.40;;;1.77;;
40955;SDS011;26687;48.254;11.454;2023-05-07T14:41:03;2.47;;;1.83;;
40955;SDS011;26687;48.254;11.454;2023-05-07T14:44:03;1.77;;;1.65;;
40955;SDS011;26687;48.254;11.454;2023-05-07T14:47:04;2.57;;;1.60;;
40955;SDS011;26687;48.254;11.454;2023-05-07T14:50:04;2.10;;;1.60;;
40955;SDS011;26687;48.254;11.454;2023-05-07T14:53:04;1.50;;;1.40;;
40955;SDS011;26687;48.254;11.454;2023-05-07T14:56:05;2.73;;;1.83;;
40955;SDS011;26687;48.254;11.454;2023-05-07T14:59:05;1.48;;;1.38;;
40955;SDS011;26687;48.254;11.454;2023-05-07T15:02:06;2.00;;;1.90;;
40955;SDS011;26687;48.254;11.454;2023-05-07T15:05:07;2.47;;;1.42;;
40955;SDS011;26687;48.254;11.454;2023-05-07T15:08:08;3.90;;;1.63;;
40955;SDS011;26687;48.254;11.454;2023-05-07T15:11:08;1.60;;;1.50;;
40955;SDS011;26687;48.254;11.454;2023-05-07T15:14:08;3.42;;;2.80;;
40955;SDS011;26687;48.254;11.454;2023-05-07T15:17:08;3.15;;;2.45;;
40955;SDS011;26687;48.254;11.454;2023-05-07T15:20:09;3.08;;;1.60;;
40955;SDS011;26687;48.254;11.454;2023-05-07T15:23:09;1.93;;;1.20;;
40955;SDS011;26687;48.254;11.454;2023-05-07T15:26:13;4.28;;;1.42;;
40955;SDS011;26687;48.254;11.454;2023-05-07T15:29:14;2.10;;;1.50;;
40955;SDS011;26687;48.254;11.454;2023-05-07T15:32:14;1.93;;;1.53;;
40955;SDS011;26687;48.254;11.454;2023-05-07T15:35:14;1.48;;;1.38;;
40955;SDS011;26687;48.254;11.454;2023-05-07T15:38:15;1.50;;;1.40;;
40955;SDS011;26687;48.254;11.454;2023-05-07T15:41:15;1.58;;;1.38;;
40955;SDS011;26687;48.254;11.454;2023-05-07T15:44:15;2.10;;;1.20;;
40955;SDS011;26687;48.254;11.454;2023-05-07T15:47:16;1.02;;;0.90;;
40955;SDS011;26687;48.254;11.454;2023-05-07T15:50:16;1.77;;;1.43;;
40955;SDS011;26687;48.254;11.454;2023-05-07T15:53:16;2.67;;;1.75;;
40955;SDS011;26687;48.254;11.454;2023-05-07T15:56:16;1.43;;;1.00;;
40955;SDS011;26687;48.254;11.454;2023-05-07T15:59:16;4.13;;;1.30;;
40955;SDS011;26687;48.254;11.454;2023-05-07T16:02:17;3.40;;;1.40;;
40955;SDS011;26687;48.254;11.454;2023-05-07T16:05:17;1.40;;;1.30;;
40955;SDS011;26687;48.254;11.454;2023-05-07T16:08:17;1.73;;;1.60;;
40955;SDS011;26687;48.254;11.454;2023-05-07T16:11:17;1.80;;;1.20;;
40955;SDS011;26687;48.254;11.454;2023-05-07T16:14:17;1.80;;;1.20;;
40955;SDS011;26687;48.254;11.454;2023-05-07T16:17:18;2.60;;;1.45;;
40955;SDS011;26687;48.254;11.454;2023-05-07T16:20:18;2.25;;;1.90;;
40955;SDS011;26687;48.254;11.454;2023-05-07T16:23:19;1.75;;;1.27;;
40955;SDS011;26687;48.254;11.454;2023-05-07T16:26:19;1.75;;;1.38;;
40955;SDS011;26687;48.254;11.454;2023-05-07T16:29:20;1.60;;;1.50;;
40955;SDS011;26687;48.254;11.454;2023-05-07T16:32:21;2.47;;;1.50;;
40955;SDS011;26687;48.254;11.454;2023-05-07T16:35:22;3.03;;;1.85;;
40955;SDS011;26687;48.254;11.454;2023-05-07T16:38:22;3.13;;;1.58;;
40955;SDS011;26687;48.254;11.454;2023-05-07T16:41:22;1.57;;;1.10;;
40955;SDS011;26687;48.254;11.454;2023-05-07T16:44:22;3.80;;;1.55;;
40955;SDS011;26687;48.254;11.454;2023-05-07T16:47:22;5.13;;;1.70;;
40955;SDS011;26687;48.254;11.454;2023-05-07T16:50:23;1.55;;;1.20;;
40955;SDS011;26687;48.254;11.454;2023-05-07T16:53:23;1.20;;;1.10;;
40955;SDS011;26687;48.254;11.454;2023-05-07T16:56:23;2.60;;;1.17;;
40955;SDS011;26687;48.254;11.454;2023-05-07T16:59:23;1.42;;;1.13;;
40955;SDS011;26687;48.254;11.454;2023-05-07T17:02:23;3.20;;;1.50;;
40955;SDS011;26687;48.254;11.454;2023-05-07T17:05:23;2.60;;;1.40;;
40955;SDS011;26687;48.254;11.454;2023-05-07T17:08:24;1.30;;;1.20;;
40955;SDS011;26687;48.254;11.454;2023-05-07T17:11:24;1.92;;;1.40;;
40955;SDS011;26687;48.254;11.454;2023-05-07T17:14:29;1.25;;;1.10;;
40955;SDS011;26687;48.254;11.454;2023-05-07T17:17:30;1.95;;;1.35;;
40955;SDS011;26687;48.254;11.454;2023-05-07T17:20:30;1.60;;;1.20;;
40955;SDS011;26687;48.254;11.454;2023-05-07T17:23:30;1.95;;;1.20;;
40955;SDS011;26687;48.254;11.454;2023-05-07T17:26:30;2.03;;;1.57;;
40955;SDS011;26687;48.254;11.454;2023-05-07T17:29:31;1.95;;;1.20;;
40955;SDS011;26687;48.254;11.454;2023-05-07T17:32:31;1.35;;;1.20;;
40955;SDS011;26687;48.254;11.454;2023-05-07T17:35:33;2.28;;;1.05;;
40955;SDS011;26687;48.254;11.454;2023-05-07T17:38:34;1.57;;;1.23;;
40955;SDS011;26687;48.254;11.454;2023-05-07T17:41:35;1.63;;;1.30;;
40955;SDS011;26687;48.254;11.454;2023-05-07T17:44:35;1.50;;;1.40;;
40955;SDS011;26687;48.254;11.454;2023-05-07T17:47:35;1.55;;;1.45;;
40955;SDS011;26687;48.254;11.454;2023-05-07T17:50:35;1.52;;;1.15;;
40955;SDS011;26687;48.254;11.454;2023-05-07T17:53:36;3.03;;;1.60;;
40955;SDS011;26687;48.254;11.454;2023-05-07T17:56:36;1.43;;;1.27;;
40955;SDS011;26687;48.254;11.454;2023-05-07T17:59:36;2.60;;;1.10;;
40955;SDS011;26687;48.254;11.454;2023-05-07T18:02:39;2.17;;;1.20;;
40955;SDS011;26687;48.254;11.454;2023-05-07T18:05:40;2.35;;;0.95;;
40955;SDS011;26687;48.254;11.454;2023-05-07T18:08:40;2.47;;;1.40;;
40955;SDS011;26687;48.254;11.454;2023-05-07T18:11:40;1.52;;;1.20;;